Alpha, Washington
Current Conditions -  °F | °C
As of 2:15 AM on Sunday 26 Oct 2014 (Local Time) from KCLS Reporting Station
Overcast Overcast  
Wind Chill: 10°   Ceiling: 4300
Heat Index: 10°   Visibility: 10mi
Dew Point:   Wind: 6mph
Humidity: 94%   Direction: 200°SSW
Pressure: 29.89"   Gusts: NA
Location:  46.5995°N, 122.665°W
Report Text: KCLS 260915Z AUTO 20005KT 10SM SCT037 BKN043 OVC110 10/09 A2989 RMK AO2
Loading
Personal Weather Stations






























Interactive Weather Map
Tropical Storm Tracking
New forecast layout! Learn more

10-Day Weather Forecast

Advertisements
Track Severe Weather on mobile